Home > Products > Valid Products > TAF

000
FTUS41 KGYX 311122
TAFCON
TAF
KCON 311122Z 3112/0112 29007KT P6SM SCT050
     FM311300 29010G17KT P6SM SCT050
     FM312200 30005KT P6SM SKC=



000
FTUS41 KGYX 311122
TAFPSM
TAF
KPSM 311122Z 3112/0112 28010G17KT P6SM SKC
     FM312200 30005KT P6SM SKC=



000
FTUS41 KGYX 311122
TAFAUG
TAF
KAUG 311122Z 3112/0112 30008G16KT P6SM SKC
     FM312200 30005KT P6SM SKC=



000
FTUS41 KGYX 311122
TAFLEB
TAF
KLEB 311122Z 3112/0112 33007KT P6SM BKN035
     FM312200 35004KT P6SM SKC=



000
FTUS41 KGYX 311122
TAFPWM
TAF
KPWM 311122Z 3112/0112 29012G17KT P6SM SCT040
     FM312200 29005KT P6SM SKC=



000
FTUS41 KGYX 310903 AAA
TAFCON
TAF AMD
KCON 310903Z 3109/0106 29007KT P6SM SCT050
     FM311300 29010G17KT P6SM SKC=



000
FTUS41 KGYX 310903 AAA
TAFLEB
TAF AMD
KLEB 310903Z 3109/0106 31007KT P6SM SCT030 BKN050
     FM311300 31008KT P6SM SCT060=



000
FTUS41 KGYX 310903 AAA
TAFAUG
TAF AMD
KAUG 310903Z 3109/0106 26007KT P6SM SCT120
     FM311300 30008G16KT P6SM SKC=



000
FTUS41 KGYX 310903 AAA
TAFPWM
TAF AMD
KPWM 310903Z 3109/0106 29010G15KT P6SM SKC=



000
FTUS41 KGYX 310903 AAA
TAFPSM
TAF AMD
KPSM 310903Z 3109/0106 26007KT P6SM SCT120
     FM311300 28010G17KT P6SM SKC=



000
FTUS41 KGYX 310528
TAFAUG
TAF
KAUG 310528Z 3106/0106 23007KT P6SM SCT050
     FM311300 30008G16KT P6SM SKC=



000
FTUS41 KGYX 310528
TAFCON
TAF
KCON 310528Z 3106/0106 23005KT P6SM FEW100
     FM311300 29010G17KT P6SM SKC=



000
FTUS41 KGYX 310528
TAFPWM
TAF
KPWM 310528Z 3106/0106 23007KT P6SM FEW100
     FM311200 29010G15KT P6SM SKC=



000
FTUS41 KGYX 310528
TAFPSM
TAF
KPSM 310528Z 3106/0106 23006KT P6SM FEW100
     FM311300 28010G17KT P6SM SKC=



000
FTUS41 KGYX 310528
TAFLEB
TAF
KLEB 310528Z 3106/0106 22007KT P6SM SCT040 BKN060
     FM311300 31008KT P6SM SCT060=



000
FTUS41 KGYX 310528
TAFCON
TAF
KCON 310528Z 3106/0106 23005KT P6SM FEW100
     FM311300 29010G17KT P6SM SKC=



000
FTUS41 KGYX 310528
TAFLEB
TAF
KLEB 310528Z 3106/0106 22007KT P6SM SCT040 BKN060
     FM311300 31008KT P6SM SCT060=



000
FTUS41 KGYX 310528
TAFPWM
TAF
KPWM 310528Z 3106/0106 23007KT P6SM FEW100
     FM311200 29010G15KT P6SM SKC=



000
FTUS41 KGYX 310528
TAFPSM
TAF
KPSM 310528Z 3106/0106 23006KT P6SM FEW100
     FM311300 28010G17KT P6SM SKC=



000
FTUS41 KGYX 310528
TAFAUG
TAF
KAUG 310528Z 3106/0106 23007KT P6SM SCT050
     FM311300 30008G16KT P6SM SKC=



000
FTUS41 KGYX 310256 AAA
TAFAUG
TAF AMD
KAUG 310256Z 3103/3124 23004KT 4SM BR SCT100
     FM311300 30008G16KT P6SM FEW100=



000
FTUS41 KGYX 310256 AAA
TAFAUG
TAF AMD
KAUG 310256Z 3103/3124 23004KT 4SM BR SCT100
     FM311300 30008G16KT P6SM FEW100=



000
FTUS41 KGYX 302320
TAFPWM
TAF
KPWM 302320Z 3100/3124 22007KT P6SM SCT050 BKN100
     FM311300 29010G15KT P6SM FEW100=



000
FTUS41 KGYX 302320
TAFPSM
TAF
KPSM 302320Z 3100/3124 22006KT P6SM SCT050 BKN100
     FM311400 28012G18KT P6SM FEW250=



000
FTUS41 KGYX 302320
TAFPWM
TAF
KPWM 302320Z 3100/3124 22007KT P6SM SCT050 BKN100
     FM311300 29010G15KT P6SM FEW100=



000
FTUS41 KGYX 302320
TAFPSM
TAF
KPSM 302320Z 3100/3124 22006KT P6SM SCT050 BKN100
     FM311400 28012G18KT P6SM FEW250=



000
FTUS41 KGYX 302320
TAFLEB
TAF
KLEB 302320Z 3100/3124 24007KT P6SM SCT050 BKN100
     FM311300 31006KT P6SM FEW100=



000
FTUS41 KGYX 302320
TAFCON
TAF
KCON 302320Z 3100/3124 26006KT P6SM SCT050 BKN100
     FM311400 29010G17KT P6SM FEW100=



000
FTUS41 KGYX 302320
TAFAUG
TAF
KAUG 302320Z 3100/3124 23006KT P6SM SCT050 BKN100
     FM311300 30008G16KT P6SM FEW100=



000
FTUS41 KGYX 302320
TAFAUG
TAF
KAUG 302320Z 3100/3124 23006KT P6SM SCT050 BKN100
     FM311300 30008G16KT P6SM FEW100=



000
FTUS41 KGYX 302320
TAFLEB
TAF
KLEB 302320Z 3100/3124 24007KT P6SM SCT050 BKN100
     FM311300 31006KT P6SM FEW100=



000
FTUS41 KGYX 302320
TAFCON
TAF
KCON 302320Z 3100/3124 26006KT P6SM SCT050 BKN100
     FM311400 29010G17KT P6SM FEW100=



000
FTUS41 KGYX 302105 AAA
TAFPSM
TAF AMD
KPSM 302105Z 3021/3118 20010KT P6SM SCT030 OVC040
     FM310000 27008KT P6SM SCT060 SCT100
     FM311400 28012G18KT P6SM FEW250=



000
FTUS41 KGYX 302034 AAA
TAFLEB
TAF AMD
KLEB 302034Z 3021/3118 22008KT P6SM BKN050 BKN100
     FM310900 30006KT P6SM FEW100=



000
FTUS41 KGYX 302025 AAA
TAFAUG
TAF AMD
KAUG 302025Z 3020/3118 20009KT P6SM OVC020
     FM310100 23006KT P6SM SCT050 BKN100
     FM311300 29008G16KT P6SM SCT100=



000
FTUS41 KGYX 302025 AAA
TAFAUG
TAF AMD
KAUG 302025Z 3020/3118 20009KT P6SM OVC020
     FM310100 23006KT P6SM SCT050 BKN100
     FM311300 29008G16KT P6SM SCT100=



000
FTUS41 KGYX 302020 AAA
TAFCON
TAF AMD
KCON 302020Z 3020/3118 18009KT P6SM BKN035 OVC050
     FM302300 26007KT P6SM SCT050 SCT100
     FM311400 29010G17KT P6SM FEW100=



000
FTUS41 KGYX 302020 AAA
TAFCON
TAF AMD
KCON 302020Z 3020/3118 18009KT P6SM BKN035 OVC050
     FM302300 26007KT P6SM SCT050 SCT100
     FM311400 29010G17KT P6SM FEW100=



000
FTUS41 KGYX 302015 AAB
TAFPWM
TAF AMD
KPWM 302015Z 3020/3118 20010KT P6SM OVC020
     FM302200 22008KT P6SM BKN030 BKN100
     FM310000 26007KT P6SM SCT050 BKN100=



000
FTUS41 KGYX 301838 AAA
TAFPWM
TAF AMD
KPWM 301838Z 3019/3118 20010KT P6SM SCT025 BKN060 OVC080
      TEMPO 3019/3021 2SM -SHSN BKN015 OVC030
     FM302100 20012KT P6SM SCT025 OVC060
      TEMPO 3021/3022 BKN025 OVC050
     FM302200 22008KT P6SM BKN060 BKN100
     FM310000 26007KT P6SM SCT060 SCT100
     FM310600 28009KT P6SM SCT050 BKN090
     FM311200 29012KT P6SM SCT060 SCT100=



000
FTUS41 KGYX 301720
TAFLEB
TAF
KLEB 301720Z 3018/3118 20012KT P6SM BKN025 OVC035
      TEMPO 3018/3020 5SM -RASN SCT025 OVC040
     FM302000 24010KT P6SM BKN050 BKN100
     FM310900 29006KT P6SM BKN050 BKN080
     FM311200 29007KT P6SM SCT060 SCT100=



000
FTUS41 KGYX 301720
TAFPSM
TAF
KPSM 301720Z 3018/3118 20010KT P6SM SCT030 OVC040
      TEMPO 3018/3021 BKN025 OVC040
     FM302100 25007KT P6SM BKN060 BKN100
     FM310000 27008KT P6SM SCT060 SCT100
     FM310500 27009KT P6SM SCT050 BKN090
     FM311200 28012KT P6SM SCT060 SCT100=



000
FTUS41 KGYX 301720
TAFAUG
TAF
KAUG 301720Z 3018/3118 19008G20KT 3SM -SHSN BKN012 OVC020
      TEMPO 3018/3021 1 1/2SM -SN BKN025 OVC040
     FM302100 20012G22KT P6SM BKN025 OVC040
     FM302300 23007KT P6SM BKN060 BKN100
     FM310000 27006KT P6SM SCT050 SCT100
     FM310600 27008KT P6SM SCT050 BKN080
     FM311200 29010KT P6SM SCT060 SCT100=



000
FTUS41 KGYX 301720
TAFPSM
TAF
KPSM 301720Z 3018/3118 20010KT P6SM SCT030 OVC040
      TEMPO 3018/3021 BKN025 OVC040
     FM302100 25007KT P6SM BKN060 BKN100
     FM310000 27008KT P6SM SCT060 SCT100
     FM310500 27009KT P6SM SCT050 BKN090
     FM311200 28012KT P6SM SCT060 SCT100=



000
FTUS41 KGYX 301720
TAFPWM
TAF
KPWM 301720Z 3018/3118 20009G23KT P6SM SCT025 BKN060 OVC080
      TEMPO 3018/3019 2SM -SHSN BKN015 OVC030
     FM301900 20012G20KT P6SM SCT025 OVC060
      TEMPO 3019/3022 BKN025 OVC050
     FM302200 22008KT P6SM BKN060 BKN100
     FM310000 26007KT P6SM SCT060 SCT100
     FM310600 28009KT P6SM SCT050 BKN090
     FM311200 29012KT P6SM SCT060 SCT100=



000
FTUS41 KGYX 301720
TAFCON
TAF
KCON 301720Z 3018/3118 18009KT P6SM SCT025 OVC050
      TEMPO 3018/3021 BKN025 OVC050
     FM302100 24007KT P6SM BKN060 BKN100
     FM302300 26007KT P6SM SCT050 SCT100
     FM310400 27007KT P6SM SCT050 BKN090
     FM311200 29012KT P6SM SCT060 SCT100=



000
FTUS41 KGYX 301720
TAFLEB
TAF
KLEB 301720Z 3018/3118 20012KT P6SM BKN025 OVC035
      TEMPO 3018/3020 5SM -RASN SCT025 OVC040
     FM302000 24010KT P6SM BKN050 BKN100
     FM310900 29006KT P6SM BKN050 BKN080
     FM311200 29007KT P6SM SCT060 SCT100=



000
FTUS41 KGYX 301720
TAFAUG
TAF
KAUG 301720Z 3018/3118 19008G20KT 3SM -SHSN BKN012 OVC020
      TEMPO 3018/3021 1 1/2SM -SN BKN025 OVC040
     FM302100 20012G22KT P6SM BKN025 OVC040
     FM302300 23007KT P6SM BKN060 BKN100
     FM310000 27006KT P6SM SCT050 SCT100
     FM310600 27008KT P6SM SCT050 BKN080
     FM311200 29010KT P6SM SCT060 SCT100=



000
FTUS41 KGYX 301720
TAFPWM
TAF
KPWM 301720Z 3018/3118 20009G23KT P6SM SCT025 BKN060 OVC080
      TEMPO 3018/3019 2SM -SHSN BKN015 OVC030
     FM301900 20012G20KT P6SM SCT025 OVC060
      TEMPO 3019/3022 BKN025 OVC050
     FM302200 22008KT P6SM BKN060 BKN100
     FM310000 26007KT P6SM SCT060 SCT100
     FM310600 28009KT P6SM SCT050 BKN090
     FM311200 29012KT P6SM SCT060 SCT100=



000
FTUS41 KGYX 301720
TAFCON
TAF
KCON 301720Z 3018/3118 18009KT P6SM SCT025 OVC050
      TEMPO 3018/3021 BKN025 OVC050
     FM302100 24007KT P6SM BKN060 BKN100
     FM302300 26007KT P6SM SCT050 SCT100
     FM310400 27007KT P6SM SCT050 BKN090
     FM311200 29012KT P6SM SCT060 SCT100=



000
FTUS41 KGYX 301558 AAB
TAFAUG
TAF AMD
KAUG 301558Z 3016/3112 19008G20KT P6SM -SHSN BKN025 OVC040
      TEMPO 3016/3018 1 1/2SM -SN BKN015 OVC030
     FM301900 20012G22KT P6SM SCT030 BKN050 OVC080
     FM302200 23007KT P6SM BKN050 BKN100
     FM310000 27006KT P6SM SCT050 SCT100=



000
FTUS41 KGYX 301535 AAA
TAFLEB
TAF AMD
KLEB 301535Z 3016/3112 20012KT P6SM SCT025 OVC035
      TEMPO 3016/3019 5SM -RASN BKN025 OVC040
     FM301900 24010KT P6SM BKN050 BKN100
     FM302300 24007KT P6SM SCT050 SCT100=



000
FTUS41 KGYX 301533 AAA
TAFCON
TAF AMD
KCON 301533Z 3016/3112 19008KT P6SM SCT025 OVC050
      TEMPO 3016/3018 3SM -RASN BKN025 OVC040
     FM302100 25007KT P6SM BKN050 BKN100
     FM310000 28007KT P6SM SCT050 SCT100=



000
FTUS41 KGYX 301533 AAA
TAFCON
TAF AMD
KCON 301533Z 3016/3112 19008KT P6SM SCT025 OVC050
      TEMPO 3016/3018 3SM -RASN BKN025 OVC040
     FM302100 25007KT P6SM BKN050 BKN100
     FM310000 28007KT P6SM SCT050 SCT100=



000
FTUS41 KGYX 301429 AAB
TAFPWM
TAF AMD
KPWM 301429Z 3014/3112 20009G23KT P6SM SCT060 BKN090
      TEMPO 3015/3016 1 1/2SM -SHSN BKN025 OVC040
     FM301600 20012G20KT P6SM -SHRA BKN025 OVC050
     FM302200 22008KT P6SM BKN050=



000
FTUS41 KGYX 301429 AAB
TAFPWM
TAF AMD
KPWM 301429Z 3014/3112 20009G23KT P6SM SCT060 BKN090
      TEMPO 3015/3016 1 1/2SM -SHSN BKN025 OVC040
     FM301600 20012G20KT P6SM -SHRA BKN025 OVC050
     FM302200 22008KT P6SM BKN050=



000
FTUS41 KGYX 301400 AAA
TAFAUG
TAF AMD
KAUG 301400Z 3014/3112 19008G20KT P6SM BKN080 BKN120
     FM301800 20008G17KT 3SM -SHRASN OVC020
     FM302200 23007KT P6SM BKN050=



000
FTUS41 KGYX 301332 AAA
TAFPSM
TAF AMD
KPSM 301332Z 3014/3112 20013G23KT P6SM SCT025 OVC080
      TEMPO 3014/3015 1 1/2SM -SHSN BKN015 OVC025
     FM301500 20010G20KT P6SM BKN025 OVC040
     FM301800 20012G22KT P6SM BKN050 BKN100
     FM302200 25007KT P6SM BKN050=



000
FTUS41 KGYX 301332 AAA
TAFPSM
TAF AMD
KPSM 301332Z 3014/3112 20013G23KT P6SM SCT025 OVC080
      TEMPO 3014/3015 1 1/2SM -SHSN BKN015 OVC025
     FM301500 20010G20KT P6SM BKN025 OVC040
     FM301800 20012G22KT P6SM BKN050 BKN100
     FM302200 25007KT P6SM BKN050=



000
FTUS41 KGYX 301312 AAA
TAFPWM
TAF AMD
KPWM 301312Z 3013/3112 20009G18KT P6SM SCT060 BKN090
     FM301600 20012G20KT P6SM -SHRA BKN025 OVC050
     FM302200 22008KT P6SM BKN050=



000
FTUS41 KGYX 301312 AAA
TAFPWM
TAF AMD
KPWM 301312Z 3013/3112 20009G18KT P6SM SCT060 BKN090
     FM301600 20012G20KT P6SM -SHRA BKN025 OVC050
     FM302200 22008KT P6SM BKN050=



000
FTUS41 KGYX 301120
TAFCON
TAF
KCON 301120Z 3012/3112 18005KT P6SM BKN120
     FM301400 20008G17KT P6SM BKN025 OVC040
     FM302100 25007KT P6SM BKN050=



000
FTUS41 KGYX 301120
TAFLEB
TAF
KLEB 301120Z 3012/3112 19004KT P6SM BKN120
     FM301400 20010KT 4SM -SHRASN BKN025 OVC040
     FM301900 24010KT P6SM BKN050=



000
FTUS41 KGYX 301120
TAFCON
TAF
KCON 301120Z 3012/3112 18005KT P6SM BKN120
     FM301400 20008G17KT P6SM BKN025 OVC040
     FM302100 25007KT P6SM BKN050=



000
FTUS41 KGYX 301120
TAFPWM
TAF
KPWM 301120Z 3012/3112 20006KT P6SM BKN120
     FM301600 20012G20KT P6SM BKN025 OVC050
     FM302200 22008KT P6SM BKN050=



000
FTUS41 KGYX 301120
TAFPWM
TAF
KPWM 301120Z 3012/3112 20006KT P6SM BKN120
     FM301600 20012G20KT P6SM BKN025 OVC050
     FM302200 22008KT P6SM BKN050=



000
FTUS41 KGYX 301120
TAFPSM
TAF
KPSM 301120Z 3012/3112 20005KT P6SM BKN120
     FM301500 20010G20KT P6SM BKN025 OVC040
     FM302200 25007KT P6SM BKN050=



000
FTUS41 KGYX 301120
TAFAUG
TAF
KAUG 301120Z 3012/3112 20006KT P6SM BKN120
     FM301800 20008G17KT 3SM -SHRASN OVC020
     FM302200 23007KT P6SM BKN050=



000
FTUS41 KGYX 301120
TAFPSM
TAF
KPSM 301120Z 3012/3112 20005KT P6SM BKN120
     FM301500 20010G20KT P6SM BKN025 OVC040
     FM302200 25007KT P6SM BKN050=



000
FTUS41 KGYX 301120
TAFAUG
TAF
KAUG 301120Z 3012/3112 20006KT P6SM BKN120
     FM301800 20008G17KT 3SM -SHRASN OVC020
     FM302200 23007KT P6SM BKN050=



000
FTUS41 KGYX 301120
TAFLEB
TAF
KLEB 301120Z 3012/3112 19004KT P6SM BKN120
     FM301400 20010KT 4SM -SHRASN BKN025 OVC040
     FM301900 24010KT P6SM BKN050=



000
FTUS41 KGYX 300841 AAA
TAFLEB
TAF AMD
KLEB 300841Z 3009/3106 19004KT P6SM BKN120
     FM301400 20010KT 4SM -SHRASN BKN025 OVC040
     FM301900 24010KT P6SM BKN050=



000
FTUS41 KGYX 300841 AAA
TAFPWM
TAF AMD
KPWM 300841Z 3009/3106 20006KT P6SM BKN120
     FM301600 20012G20KT P6SM BKN025 OVC050
     FM302200 22008KT P6SM BKN050=



000
FTUS41 KGYX 300841 AAA
TAFPSM
TAF AMD
KPSM 300841Z 3009/3106 20005KT P6SM BKN120
     FM301500 20010G20KT P6SM BKN025 OVC040
     FM302200 25007KT P6SM BKN050=



000
FTUS41 KGYX 300841 AAA
TAFAUG
TAF AMD
KAUG 300841Z 3009/3106 20006KT P6SM BKN120
     FM301800 20008G17KT 3SM -SHRASN OVC020
     FM302200 23007KT P6SM BKN050=



000
FTUS41 KGYX 300841 AAA
TAFCON
TAF AMD
KCON 300841Z 3009/3106 18005KT P6SM BKN120
     FM301400 20008G17KT P6SM BKN025 OVC040
     FM302100 25007KT P6SM BKN050=



000
FTUS41 KGYX 300841 AAA
TAFLEB
TAF AMD
KLEB 300841Z 3009/3106 19004KT P6SM BKN120
     FM301400 20010KT 4SM -SHRASN BKN025 OVC040
     FM301900 24010KT P6SM BKN050=



000
FTUS41 KGYX 300841 AAA
TAFPSM
TAF AMD
KPSM 300841Z 3009/3106 20005KT P6SM BKN120
     FM301500 20010G20KT P6SM BKN025 OVC040
     FM302200 25007KT P6SM BKN050=



000
FTUS41 KGYX 300841 AAA
TAFCON
TAF AMD
KCON 300841Z 3009/3106 18005KT P6SM BKN120
     FM301400 20008G17KT P6SM BKN025 OVC040
     FM302100 25007KT P6SM BKN050=



000
FTUS41 KGYX 300841 AAA
TAFPWM
TAF AMD
KPWM 300841Z 3009/3106 20006KT P6SM BKN120
     FM301600 20012G20KT P6SM BKN025 OVC050
     FM302200 22008KT P6SM BKN050=



000
FTUS41 KGYX 300841 AAA
TAFAUG
TAF AMD
KAUG 300841Z 3009/3106 20006KT P6SM BKN120
     FM301800 20008G17KT 3SM -SHRASN OVC020
     FM302200 23007KT P6SM BKN050=



000
FTUS41 KGYX 300520
TAFCON
TAF
KCON 300520Z 3006/3106 18005KT P6SM BKN120
     FM301400 20008G17KT P6SM BKN025 OVC040
     FM302100 25007KT P6SM BKN050=



000
FTUS41 KGYX 300520
TAFPWM
TAF
KPWM 300520Z 3006/3106 20006KT P6SM BKN120
     FM301600 20012G20KT P6SM BKN025 OVC050
     FM302200 22008KT P6SM BKN050=



000
FTUS41 KGYX 300520
TAFLEB
TAF
KLEB 300520Z 3006/3106 19004KT P6SM BKN120
     FM301400 20010KT 4SM -SHRASN BKN025 OVC040
     FM301900 24010KT P6SM BKN050=



000
FTUS41 KGYX 300520
TAFPSM
TAF
KPSM 300520Z 3006/3106 20005KT P6SM BKN120
     FM301500 20010G20KT P6SM BKN025 OVC040
     FM302200 25007KT P6SM BKN050=



000
FTUS41 KGYX 300520
TAFLEB
TAF
KLEB 300520Z 3006/3106 19004KT P6SM BKN120
     FM301400 20010KT 4SM -SHRASN BKN025 OVC040
     FM301900 24010KT P6SM BKN050=



000
FTUS41 KGYX 300520
TAFPSM
TAF
KPSM 300520Z 3006/3106 20005KT P6SM BKN120
     FM301500 20010G20KT P6SM BKN025 OVC040
     FM302200 25007KT P6SM BKN050=



000
FTUS41 KGYX 300520
TAFCON
TAF
KCON 300520Z 3006/3106 18005KT P6SM BKN120
     FM301400 20008G17KT P6SM BKN025 OVC040
     FM302100 25007KT P6SM BKN050=



000
FTUS41 KGYX 300520
TAFAUG
TAF
KAUG 300520Z 3006/3106 20006KT P6SM BKN120
     FM301800 20008G17KT 3SM -SHRASN OVC020
     FM302200 23007KT P6SM BKN050=



000
FTUS41 KGYX 300520
TAFAUG
TAF
KAUG 300520Z 3006/3106 20006KT P6SM BKN120
     FM301800 20008G17KT 3SM -SHRASN OVC020
     FM302200 23007KT P6SM BKN050=



000
FTUS41 KGYX 300520
TAFPWM
TAF
KPWM 300520Z 3006/3106 20006KT P6SM BKN120
     FM301600 20012G20KT P6SM BKN025 OVC050
     FM302200 22008KT P6SM BKN050=



000
FTUS41 KGYX 292320
TAFAUG
TAF
KAUG 292320Z 3000/3024 VRB03KT P6SM SKC
     FM301200 20007G15KT P6SM BKN100 OVC200
     FM301700 20008G17KT 3SM -SHRASN OVC020
     FM302200 23007KT P6SM BKN050=



000
FTUS41 KGYX 292320
TAFPWM
TAF
KPWM 292320Z 3000/3024 18004KT P6SM SKC
     FM301200 20008KT P6SM BKN100 OVC200
     FM301500 20012G20KT P6SM BKN025 OVC050
     FM302200 22008KT P6SM BKN050=



000
FTUS41 KGYX 292320
TAFCON
TAF
KCON 292320Z 3000/3024 VRB03KT P6SM FEW200
     FM301000 VRB03KT P6SM BKN100 OVC200
     FM301300 19007G15KT P6SM BKN025 OVC040
     FM302100 20007KT P6SM BKN050=



000
FTUS41 KGYX 292320
TAFLEB
TAF
KLEB 292320Z 3000/3024 VRB03KT P6SM FEW200
     FM300900 VRB03KT P6SM BKN100 OVC200
     FM301300 20010KT 4SM -SHRASN BKN025 OVC040
     FM302000 20007KT P6SM BKN050=



000
FTUS41 KGYX 292320
TAFPWM
TAF
KPWM 292320Z 3000/3024 18004KT P6SM SKC
     FM301200 20008KT P6SM BKN100 OVC200
     FM301500 20012G20KT P6SM BKN025 OVC050
     FM302200 22008KT P6SM BKN050=



000
FTUS41 KGYX 292320
TAFPSM
TAF
KPSM 292320Z 3000/3024 VRB03KT P6SM SKC
     FM301100 VRB03KT P6SM BKN100 OVC200
     FM301400 20010G20KT P6SM BKN025 OVC040
     FM302200 25007KT P6SM BKN050=



000
FTUS41 KGYX 292320
TAFCON
TAF
KCON 292320Z 3000/3024 VRB03KT P6SM FEW200
     FM301000 VRB03KT P6SM BKN100 OVC200
     FM301300 19007G15KT P6SM BKN025 OVC040
     FM302100 20007KT P6SM BKN050=



000
FTUS41 KGYX 292320
TAFAUG
TAF
KAUG 292320Z 3000/3024 VRB03KT P6SM SKC
     FM301200 20007G15KT P6SM BKN100 OVC200
     FM301700 20008G17KT 3SM -SHRASN OVC020
     FM302200 23007KT P6SM BKN050=



000
FTUS41 KGYX 292320
TAFLEB
TAF
KLEB 292320Z 3000/3024 VRB03KT P6SM FEW200
     FM300900 VRB03KT P6SM BKN100 OVC200
     FM301300 20010KT 4SM -SHRASN BKN025 OVC040
     FM302000 20007KT P6SM BKN050=



000
FTUS41 KGYX 292320
TAFPSM
TAF
KPSM 292320Z 3000/3024 VRB03KT P6SM SKC
     FM301100 VRB03KT P6SM BKN100 OVC200
     FM301400 20010G20KT P6SM BKN025 OVC040
     FM302200 25007KT P6SM BKN050=



000
FTUS41 KGYX 291720
TAFPSM
TAF
KPSM 291720Z 2918/3018 VRB04KT P6SM SKC
     FM292300 VRB03KT P6SM SCT200
     FM300600 19005KT P6SM SCT120 BKN200
     FM301500 18010KT P6SM SCT030 BKN050 OVC080=



000
FTUS41 KGYX 291720
TAFLEB
TAF
KLEB 291720Z 2918/3018 30007KT P6SM SCT200
     FM292300 VRB03KT P6SM SCT200
     FM300500 19004KT P6SM SCT120 BKN200
     FM301400 20010KT P6SM SCT030 BKN045 OVC080=



000
FTUS41 KGYX 291720
TAFPWM
TAF
KPWM 291720Z 2918/3018 VRB03KT P6SM SKC
     FM300600 20005KT P6SM SCT120 BKN200
     FM301500 19009KT P6SM SCT030 BKN050 OVC080=



000
FTUS41 KGYX 291720
TAFPSM
TAF
KPSM 291720Z 2918/3018 VRB04KT P6SM SKC
     FM292300 VRB03KT P6SM SCT200
     FM300600 19005KT P6SM SCT120 BKN200
     FM301500 18010KT P6SM SCT030 BKN050 OVC080=



000
FTUS41 KGYX 291720
TAFCON
TAF
KCON 291720Z 2918/3018 33009KT P6SM SKC
     FM292300 VRB03KT P6SM SCT200
     FM300600 VRB03KT P6SM SCT120 BKN200
     FM301500 20007KT P6SM SCT030 BKN050 OVC080=



000
FTUS41 KGYX 291720
TAFLEB
TAF
KLEB 291720Z 2918/3018 30007KT P6SM SCT200
     FM292300 VRB03KT P6SM SCT200
     FM300500 19004KT P6SM SCT120 BKN200
     FM301400 20010KT P6SM SCT030 BKN045 OVC080=



000
FTUS41 KGYX 291720
TAFAUG
TAF
KAUG 291720Z 2918/3018 VRB03KT P6SM SKC
     FM300700 19004KT P6SM SCT120 BKN200
     FM301600 18007KT P6SM BKN050 OVC080=



000
FTUS41 KGYX 291720
TAFAUG
TAF
KAUG 291720Z 2918/3018 VRB03KT P6SM SKC
     FM300700 19004KT P6SM SCT120 BKN200
     FM301600 18007KT P6SM BKN050 OVC080=



000
FTUS41 KGYX 291720
TAFPWM
TAF
KPWM 291720Z 2918/3018 VRB03KT P6SM SKC
     FM300600 20005KT P6SM SCT120 BKN200
     FM301500 19009KT P6SM SCT030 BKN050 OVC080=



000
FTUS41 KGYX 291720
TAFCON
TAF
KCON 291720Z 2918/3018 33009KT P6SM SKC
     FM292300 VRB03KT P6SM SCT200
     FM300600 VRB03KT P6SM SCT120 BKN200
     FM301500 20007KT P6SM SCT030 BKN050 OVC080=



000
FTUS41 KGYX 291532 AAA
TAFCON
TAF AMD
KCON 291532Z 2916/3012 32008G18KT P6SM SKC
     FM291900 VRB04KT P6SM SCT200=



000
FTUS41 KGYX 291133
TAFPSM
TAF
KPSM 291133Z 2912/3012 30006KT P6SM FEW080
     FM291900 23005KT P6SM SCT250=



000
FTUS41 KGYX 291133
TAFPSM
TAF
KPSM 291133Z 2912/3012 30006KT P6SM FEW080
     FM291900 23005KT P6SM SCT250=



000
FTUS41 KGYX 291133
TAFCON
TAF
KCON 291133Z 2912/3012 32006KT P6SM SKC
     FM291900 VRB04KT P6SM SCT200=



000
FTUS41 KGYX 291133
TAFLEB
TAF
KLEB 291133Z 2912/3012 VRB03KT P6SM SCT200=



000
FTUS41 KGYX 291133
TAFPWM
TAF
KPWM 291133Z 2912/3012 31007KT P6SM SKC
     FM291900 22006KT P6SM SCT200=



000
FTUS41 KGYX 291133
TAFAUG
TAF
KAUG 291133Z 2912/3012 29006KT P6SM SKC
     FM291900 24006KT P6SM SCT200=



000
FTUS41 KGYX 291133
TAFCON
TAF
KCON 291133Z 2912/3012 32006KT P6SM SKC
     FM291900 VRB04KT P6SM SCT200=



000
FTUS41 KGYX 291133
TAFAUG
TAF
KAUG 291133Z 2912/3012 29006KT P6SM SKC
     FM291900 24006KT P6SM SCT200=



000
FTUS41 KGYX 291133
TAFLEB
TAF
KLEB 291133Z 2912/3012 VRB03KT P6SM SCT200=



000
FTUS41 KGYX 291133
TAFPWM
TAF
KPWM 291133Z 2912/3012 31007KT P6SM SKC
     FM291900 22006KT P6SM SCT200=



000
FTUS41 KGYX 290842 AAA
TAFAUG
TAF AMD
KAUG 290842Z 2909/3006 32008KT P6SM SKC
     FM291900 24006KT P6SM SCT200=



000
FTUS41 KGYX 290842 AAA
TAFPWM
TAF AMD
KPWM 290842Z 2909/3006 31007KT P6SM SKC
     FM291900 22006KT P6SM SCT200=



000
FTUS41 KGYX 290842 AAA
TAFCON
TAF AMD
KCON 290842Z 2909/3006 32006KT P6SM SKC
     FM291900 VRB04KT P6SM SCT200=



000
FTUS41 KGYX 290842 AAA
TAFPSM
TAF AMD
KPSM 290842Z 2909/3006 30006KT P6SM FEW080
     FM291900 23005KT P6SM SCT250=



000
FTUS41 KGYX 290842 AAA
TAFLEB
TAF AMD
KLEB 290842Z 2909/3006 VRB03KT P6SM SCT200=



000
FTUS41 KGYX 290842 AAA
TAFPWM
TAF AMD
KPWM 290842Z 2909/3006 31007KT P6SM SKC
     FM291900 22006KT P6SM SCT200=



000
FTUS41 KGYX 290842 AAA
TAFLEB
TAF AMD
KLEB 290842Z 2909/3006 VRB03KT P6SM SCT200=



000
FTUS41 KGYX 290842 AAA
TAFCON
TAF AMD
KCON 290842Z 2909/3006 32006KT P6SM SKC
     FM291900 VRB04KT P6SM SCT200=



000
FTUS41 KGYX 290842 AAA
TAFPSM
TAF AMD
KPSM 290842Z 2909/3006 30006KT P6SM FEW080
     FM291900 23005KT P6SM SCT250=



000
FTUS41 KGYX 290842 AAA
TAFAUG
TAF AMD
KAUG 290842Z 2909/3006 32008KT P6SM SKC
     FM291900 24006KT P6SM SCT200=



000
FTUS41 KGYX 290529
TAFLEB
TAF
KLEB 290529Z 2906/3006 01004KT P6SM FEW100
     FM292000 21004KT P6SM SCT200=



000
FTUS41 KGYX 290529
TAFAUG
TAF
KAUG 290529Z 2906/3006 32009KT P6SM SCT100
     FM291800 24006KT P6SM SCT200=



000
FTUS41 KGYX 290529
TAFPWM
TAF
KPWM 290529Z 2906/3006 32008KT P6SM SCT080
     FM291900 22006KT P6SM SCT200=



000
FTUS41 KGYX 290529
TAFPSM
TAF
KPSM 290529Z 2906/3006 30009KT P6SM FEW080
     FM291900 23005KT P6SM SCT250=



000
FTUS41 KGYX 290529
TAFCON
TAF
KCON 290529Z 2906/3006 32010G18KT P6SM BKN100
     FM290900 32008KT P6SM FEW100
     FM292000 VRB04KT P6SM SCT200=



000
FTUS41 KGYX 290529
TAFLEB
TAF
KLEB 290529Z 2906/3006 01004KT P6SM FEW100
     FM292000 21004KT P6SM SCT200=



000
FTUS41 KGYX 290529
TAFPWM
TAF
KPWM 290529Z 2906/3006 32008KT P6SM SCT080
     FM291900 22006KT P6SM SCT200=



000
FTUS41 KGYX 290529
TAFCON
TAF
KCON 290529Z 2906/3006 32010G18KT P6SM BKN100
     FM290900 32008KT P6SM FEW100
     FM292000 VRB04KT P6SM SCT200=



000
FTUS41 KGYX 290529
TAFPSM
TAF
KPSM 290529Z 2906/3006 30009KT P6SM FEW080
     FM291900 23005KT P6SM SCT250=



000
FTUS41 KGYX 290529
TAFAUG
TAF
KAUG 290529Z 2906/3006 32009KT P6SM SCT100
     FM291800 24006KT P6SM SCT200=



000
FTUS41 KGYX 290118 AAA
TAFAUG
TAF AMD
KAUG 290118Z 2901/2924 32012KT P6SM SKC
     FM290300 33007KT P6SM OVC100
     FM290600 VRB04KT P6SM OVC250=



000
FTUS41 KGYX 290118 AAA
TAFAUG
TAF AMD
KAUG 290118Z 2901/2924 32012KT P6SM SKC
     FM290300 33007KT P6SM OVC100
     FM290600 VRB04KT P6SM OVC250=



000
FTUS41 KGYX 290044 AAA
TAFPSM
TAF AMD
KPSM 290044Z 2901/2924 27005KT P6SM SCT024 BKN035 OVC080
     FM290300 32007KT P6SM OVC050
     FM291200 VRB05KT P6SM BKN250=



000
FTUS41 KGYX 290044 AAA
TAFPSM
TAF AMD
KPSM 290044Z 2901/2924 27005KT P6SM SCT024 BKN035 OVC080
     FM290300 32007KT P6SM OVC050
     FM291200 VRB05KT P6SM BKN250=



000
FTUS41 KGYX 290043 AAA
TAFCON
TAF AMD
KCON 290043Z 2901/2924 33010G18KT P6SM OVC060
     FM290900 32003KT P6SM OVC100
     FM291200 VRB04KT P6SM SCT250=



000
FTUS41 KGYX 290043 AAA
TAFLEB
TAF AMD
KLEB 290043Z 2901/2924 33007G16KT P6SM SCT110
     FM290600 36006KT P6SM OVC100
     FM290900 29002KT P6SM SCT250=



000
FTUS41 KGYX 290043 AAA
TAFLEB
TAF AMD
KLEB 290043Z 2901/2924 33007G16KT P6SM SCT110
     FM290600 36006KT P6SM OVC100
     FM290900 29002KT P6SM SCT250=



000
FTUS41 KGYX 290043 AAA
TAFCON
TAF AMD
KCON 290043Z 2901/2924 33010G18KT P6SM OVC060
     FM290900 32003KT P6SM OVC100
     FM291200 VRB04KT P6SM SCT250=



000
FTUS41 KGYX 282320
TAFLEB
TAF
KLEB 282320Z 2900/2924 35004KT P6SM OVC050
     FM290600 36002KT P6SM OVC100
     FM290900 29002KT P6SM SCT250=



000
FTUS41 KGYX 282320
TAFCON
TAF
KCON 282320Z 2900/2924 32006KT P6SM OVC050
     FM290900 32003KT P6SM OVC100
     FM291200 VRB04KT P6SM SCT250=



000
FTUS41 KGYX 282320
TAFPWM
TAF
KPWM 282320Z 2900/2924 34006KT P6SM OVC050
     FM290300 34010KT P6SM OVC050
     FM290600 33006KT P6SM OVC100
     FM291200 VRB05KT P6SM SKC=



000
FTUS41 KGYX 282320
TAFAUG
TAF
KAUG 282320Z 2900/2924 35007KT P6SM OVC050
     FM290300 33007KT P6SM OVC100
     FM290600 VRB04KT P6SM OVC250=



000
FTUS41 KGYX 282320
TAFPSM
TAF
KPSM 282320Z 2900/2924 33006KT P6SM OVC015
     FM290300 32007KT P6SM OVC050
     FM291200 VRB05KT P6SM BKN250=



000
FTUS41 KGYX 282141 AAB
TAFPSM
TAF AMD
KPSM 282141Z 2822/2918 32003KT P6SM FEW022 BKN050 BKN080
     FM290300 34007KT P6SM OVC040=



000
FTUS41 KGYX 282000 AAC
TAFCON
TAF AMD
KCON 282000Z 2820/2918 32011KT 2SM -SN BKN027 OVC035
     FM282200 35007KT P6SM OVC050=



000
FTUS41 KGYX 281959 AAB
TAFPWM
TAF AMD
KPWM 281959Z 2820/2918 06009KT P6SM OVC060
     FM290000 34010KT P6SM OVC050
     FM290600 33006KT P6SM OVC100=



000
FTUS41 KGYX 281926 AAA
TAFPSM
TAF AMD
KPSM 281926Z 2819/2918 36010KT 1SM -SN BR SCT010 OVC015
     FM282200 36009KT 4SM BR OVC025
     FM290300 34007KT P6SM OVC040=



000
FTUS41 KGYX 281926 AAA
TAFPSM
TAF AMD
KPSM 281926Z 2819/2918 36010KT 1SM -SN BR SCT010 OVC015
     FM282200 36009KT 4SM BR OVC025
     FM290300 34007KT P6SM OVC040=



000
FTUS41 KGYX 281925 AAB
TAFCON
TAF AMD
KCON 281925Z 2819/2918 33010KT 4SM -SN BR SCT015 OVC025
     FM282200 35007KT P6SM OVC050=



000
FTUS41 KGYX 281925 AAB
TAFCON
TAF AMD
KCON 281925Z 2819/2918 33010KT 4SM -SN BR SCT015 OVC025
     FM282200 35007KT P6SM OVC050=



000
FTUS41 KGYX 281922 AAA
TAFCON
TAF AMD
KCON 281922Z 2819/2918 33010KT 4SM -SN BR SCT015 OVC025
     FM290000 35007KT P6SM OVC050=



000
FTUS41 KGYX 281918 AAA
TAFPWM
TAF AMD
KPWM 281918Z 2819/2918 36013KT P6SM SCT025 BKN050
     FM290000 34010KT P6SM OVC050
     FM290600 33006KT P6SM OVC100=



000
FTUS41 KGYX 281918 AAA
TAFPWM
TAF AMD
KPWM 281918Z 2819/2918 36013KT P6SM SCT025 BKN050
     FM290000 34010KT P6SM OVC050
     FM290600 33006KT P6SM OVC100=



000
FTUS41 KGYX 281729
TAFCON
TAF
KCON 281729Z 2818/2918 35010KT 2SM -SN BR SCT007 BKN012
     FM282100 35010KT 4SM -SN BR OVC025
     FM290000 35007KT P6SM OVC050=



000
FTUS41 KGYX 281729
TAFPWM
TAF
KPWM 281729Z 2818/2918 36016G22KT 2SM -SN BR BKN010 OVC025
     FM282100 36010KT 4SM -SN BR OVC025
     FM290000 34010KT P6SM OVC050
     FM290600 33006KT P6SM OVC100=



000
FTUS41 KGYX 281729
TAFAUG
TAF
KAUG 281729Z 2818/2918 36012KT P6SM BKN035
     FM290000 34008KT P6SM OVC050
     FM290600 33005KT P6SM BKN250=



000
FTUS41 KGYX 281729
TAFLEB
TAF
KLEB 281729Z 2818/2918 01012G22KT P6SM FEW035 BKN050
     FM282000 35005KT P6SM BKN050
     FM290600 36003KT P6SM OVC100=



000
FTUS41 KGYX 281729
TAFPSM
TAF
KPSM 281729Z 2818/2918 36013KT 1SM -SN BR OVC012
     FM282200 36011KT 3SM BR OVC025
     FM290300 34007KT 5SM BR OVC035=



000
FTUS41 KGYX 281729
TAFPWM
TAF
KPWM 281729Z 2818/2918 36016G22KT 2SM -SN BR BKN010 OVC025
     FM282100 36010KT 4SM -SN BR OVC025
     FM290000 34010KT P6SM OVC050
     FM290600 33006KT P6SM OVC100=



000
FTUS41 KGYX 281729
TAFCON
TAF
KCON 281729Z 2818/2918 35010KT 2SM -SN BR SCT007 BKN012
     FM282100 35010KT 4SM -SN BR OVC025
     FM290000 35007KT P6SM OVC050=



000
FTUS41 KGYX 281729
TAFPSM
TAF
KPSM 281729Z 2818/2918 36013KT 1SM -SN BR OVC012
     FM282200 36011KT 3SM BR OVC025
     FM290300 34007KT 5SM BR OVC035=



000
FTUS41 KGYX 281729
TAFAUG
TAF
KAUG 281729Z 2818/2918 36012KT P6SM BKN035
     FM290000 34008KT P6SM OVC050
     FM290600 33005KT P6SM BKN250=



000
FTUS41 KGYX 281729
TAFLEB
TAF
KLEB 281729Z 2818/2918 01012G22KT P6SM FEW035 BKN050
     FM282000 35005KT P6SM BKN050
     FM290600 36003KT P6SM OVC100=



000
FTUS41 KGYX 281611 AAB
TAFAUG
TAF AMD
KAUG 281611Z 2816/2912 36012KT 1 1/2SM -SN OVC020
     FM282000 35008KT P6SM OVC050
     FM290300 33007KT P6SM OVC100
     FM290600 32004KT P6SM OVC250=



000
FTUS41 KGYX 281611 AAB
TAFAUG
TAF AMD
KAUG 281611Z 2816/2912 36012KT 1 1/2SM -SN OVC020
     FM282000 35008KT P6SM OVC050
     FM290300 33007KT P6SM OVC100
     FM290600 32004KT P6SM OVC250=



000
FTUS41 KGYX 281523 AAA
TAFPWM
TAF AMD
KPWM 281523Z 2815/2912 01012G22KT 4SM -SNRA BKN010 OVC035
     FM282100 34010KT P6SM OVC015
     FM290000 34007KT P6SM OVC050
     FM290600 33006KT P6SM OVC100=



000
FTUS41 KGYX 281520 AAA
TAFAUG
TAF AMD
KAUG 281520Z 2815/2912 02010G17KT P6SM OVC035
     FM281800 35008KT P6SM OVC050
     FM290300 33007KT P6SM OVC100
     FM290600 32004KT P6SM OVC250=



000
FTUS41 KGYX 281520 AAA
TAFAUG
TAF AMD
KAUG 281520Z 2815/2912 02010G17KT P6SM OVC035
     FM281800 35008KT P6SM OVC050
     FM290300 33007KT P6SM OVC100
     FM290600 32004KT P6SM OVC250=



000
FTUS41 KGYX 281518 AAA
TAFLEB
TAF AMD
KLEB 281518Z 2815/2912 36008KT P6SM OVC050=



000
FTUS41 KGYX 281315 AAA
TAFPSM
TAF AMD
KPSM 281315Z 2813/2912 01013G22KT 4SM -SNRA BR OVC020
     FM281500 01013G21KT 1SM -SNRA OVC007
     FM282200 36011KT 3SM BR OVC015
     FM290500 34007KT 5SM BR OVC035=



000
FTUS41 KGYX 281315 AAA
TAFPSM
TAF AMD
KPSM 281315Z 2813/2912 01013G22KT 4SM -SNRA BR OVC020
     FM281500 01013G21KT 1SM -SNRA OVC007
     FM282200 36011KT 3SM BR OVC015
     FM290500 34007KT 5SM BR OVC035=



    US Dept of Commerce
    National Oceanic and Atmospheric Administration
    National Weather Service
    1325 East West Highway
    Silver Spring, MD 20910
    Page Author: NWS Internet Services Team
Disclaimer
Information Quality
Credits
Glossary
Privacy Policy
Freedom of Information Act (FOIA)
About Us
Career Opportunities